KRI Dewaruci — PKOE — position and weather

sailwx.info

Track history (hours):
 
Tides and Currents Weather Stations Pressure Air Temp Water Temp Dewpoint Dewpoint Depression Visibility Wind Speed Wind Dir Waves Ship Positions

KRI Dewaruci (Indonesia)

Ship's website: http://www.tnial.mil.id

Last reported at 2018-Jul-23 02:58 UTC. Time now 2018-Aug-14 07:04 UTC.
Position S 07°12' E 112°44'.
Warning: this ship's position is 22 days out of date.

; draft 4.5 m.

Type: Sailing vessel. MMSI: 525002050.

Date/timePositionNaut miles runAvg speedWind from/ knotsBaromVisibWave heightAir tempDewpointWater temp
2018-Jul-23 02:58S 07°12' E 112°44'1 1.4
2018-Jul-23 02:28S 07°12' E 112°45'0 0.0
2018-Jul-23 01:53S 07°12' E 112°45'0 0.0
2018-Jul-23 01:28S 07°12' E 112°45'  
2018-Jul-19 04:40S 07°12' E 112°45'0 0.9
2018-Jul-19 04:29S 07°12' E 112°45'3 6.1
2018-Jul-19 03:59S 07°11' E 112°42'4 8.0
2018-Jul-19 03:26S 07°08' E 112°40'4 7.8
2018-Jul-19 02:54S 07°04' E 112°40'8 3.0
2018-Jul-19 00:19S 07°11' E 112°42'3 7.9
2018-Jul-18 23:54S 07°11' E 112°45'1 2.0
2018-Jul-18 23:29S 07°12' E 112°44'0 0.3
2018-Jul-18 22:57S 07°12' E 112°45'0 0.0
2018-Jul-18 03:49S 07°12' E 112°45'0 0.0
2018-Jul-18 03:28S 07°12' E 112°45'  
Track history (hours):
 
Tides and Currents Weather Stations Pressure Air Temp Water Temp Dewpoint Dewpoint Depression Visibility Wind Speed Wind Dir Waves Ship Positions

KRI Dewaruci (Indonesia)

Ship's website: http://www.tnial.mil.id

Last reported at 2018-Jul-23 02:58 UTC. Time now 2018-Aug-14 07:04 UTC.
Position S 07°12' E 112°44'.
Warning: this ship's position is 22 days out of date.

; draft 4.5 m.

Type: Sailing vessel. MMSI: 525002050.

Date/timePositionNaut miles runAvg speedWind from/ knotsBaromVisibWave heightAir tempDewpointWater temp
2018-Jul-23 02:58S 07°12' E 112°44'1 1.4
2018-Jul-23 02:28S 07°12' E 112°45'0 0.0
2018-Jul-23 01:53S 07°12' E 112°45'0 0.0
2018-Jul-23 01:28S 07°12' E 112°45'  
2018-Jul-19 04:40S 07°12' E 112°45'0 0.9
2018-Jul-19 04:29S 07°12' E 112°45'3 6.1
2018-Jul-19 03:59S 07°11' E 112°42'4 8.0
2018-Jul-19 03:26S 07°08' E 112°40'4 7.8
2018-Jul-19 02:54S 07°04' E 112°40'8 3.0
2018-Jul-19 00:19S 07°11' E 112°42'3 7.9
2018-Jul-18 23:54S 07°11' E 112°45'1 2.0
2018-Jul-18 23:29S 07°12' E 112°44'0 0.3
2018-Jul-18 22:57S 07°12' E 112°45'0 0.0
2018-Jul-18 03:49S 07°12' E 112°45'0 0.0
2018-Jul-18 03:28S 07°12' E 112°45'  

Dump ship's entire track history